Quick Links (Output Below):   Max & Min Temps   /   Climate Reports   /   Zone Forecasts
River Forecasts   /   Forestry Forecasts   /   Aviation Forecasts   /   Radars   /   Features

Terminal Aerodrome Forecast (Fayetteville)

Pick a Site:
Arkadelphia | El Dorado | Fayetteville | Fort Smith | Harrison | Highfill | Hot Springs | Jonesboro
Little Rock | Monticello | Mountain Home | Pine Bluff | Texarkana
 Forecast 

KFYV 301720Z 3018/3118 22011G17KT P6SM OVC110
     FM302100 29010KT P6SM SCT250
     FM310000 33006KT P6SM SKC
     FM311500 36010G18KT P6SM SKC=


 Latest METARs (Observations) 
How to Decode METARs
17Z KFYV 301653Z 22014KT 10SM BKN080 BKN100 17/05 A3011 RMK AO2 SLP193
         T01720050
         
16Z KFYV 301553Z 22011KT 10SM BKN090 OVC110 17/06 A3013 RMK AO2 SLP200
         T01720056
         
15Z KFYV 301453Z 18009KT 10SM CLR 14/08 A3013 RMK AO2 SLP200 T01440083
         58002
         
14Z KFYV 301353Z 00000KT 10SM CLR 06/05 A3014 RMK AO2 SLP208
         T00610050
         
13Z KFYV 301253Z 10SM CLR 02/02 A3014 RMK AO2 SLP210 T00220022
         
12Z KFYV 301153Z 00000KT 10SM CLR 03/03 A3013 RMK AO2 SLP207 T00280028
         10050 20022 56004
         
11Z KFYV 301053Z 16003KT 10SM CLR 03/03 A3014 RMK AO2 SLP205
         T00280028
         
10Z KFYV 300953Z AUTO 00000KT 10SM CLR 03/03 A3014 RMK AO2 SLP204
         T00280028
         
09Z KFYV 300853Z AUTO 00000KT 10SM CLR 03/03 A3015 RMK AO2 SLP207
         T00280028 58007
         
08Z KFYV 300753Z AUTO 00000KT 10SM CLR 04/03 A3016 RMK AO2 SLP209
         T00390033
         
***** Today's Observations (Above) *****


Back to Main Page
http://www.srh.noaa.gov/lzk/qfcst.php

USA.gov is the U.S. government's official web portal to all federal, state and local government web resources and services.